createdAt,value
2019-03-29T00:01:13.712Z,10.27
2019-03-29T00:03:42.331Z,6.60
2019-03-29T00:06:11.104Z,9.17
2019-03-29T00:08:39.708Z,10.47
2019-03-29T00:11:08.333Z,9.77
2019-03-29T00:13:37.156Z,8.00
2019-03-29T00:16:05.810Z,8.30
2019-03-29T00:18:34.443Z,10.20
2019-03-29T00:21:03.059Z,8.60
2019-03-29T00:23:31.852Z,12.50
2019-03-29T00:26:00.477Z,9.37
2019-03-29T00:28:29.109Z,10.70
2019-03-29T00:30:57.752Z,5.43
2019-03-29T00:33:26.374Z,8.47
2019-03-29T00:35:55.002Z,6.57
2019-03-29T00:38:23.661Z,6.23
2019-03-29T00:40:52.285Z,9.23
2019-03-29T00:43:20.911Z,7.57
2019-03-29T00:45:49.590Z,5.43
2019-03-29T00:48:18.217Z,5.50
2019-03-29T00:50:46.765Z,7.33
2019-03-29T00:53:15.423Z,6.47
2019-03-29T00:55:44.043Z,12.13
2019-03-29T00:58:12.670Z,6.57
2019-03-29T01:00:41.319Z,5.23
2019-03-29T01:03:10.907Z,5.20
2019-03-29T01:05:39.549Z,12.83
2019-03-29T01:08:10.280Z,10.50
2019-03-29T01:10:38.620Z,6.17
2019-03-29T01:13:07.248Z,12.67
2019-03-29T01:15:36.170Z,8.03
2019-03-29T01:18:04.777Z,7.63
2019-03-29T01:20:33.494Z,9.03
2019-03-29T01:23:02.149Z,7.20
2019-03-29T01:25:30.773Z,8.00
2019-03-29T01:27:59.398Z,6.73
2019-03-29T01:30:28.050Z,6.33
2019-03-29T01:32:56.682Z,7.13
2019-03-29T01:38:40.917Z,5.90
2019-03-29T01:41:09.542Z,6.53
2019-03-29T01:43:38.169Z,15.27
2019-03-29T01:46:06.829Z,8.37
2019-03-29T01:48:35.442Z,5.83
2019-03-29T01:51:04.078Z,7.53
2019-03-29T01:53:32.750Z,8.03
2019-03-29T01:56:01.447Z,6.77
2019-03-29T01:58:30.148Z,10.73
2019-03-29T02:00:58.805Z,6.40
2019-03-29T02:03:27.513Z,5.90
2019-03-29T02:05:56.142Z,10.03
2019-03-29T02:08:35.244Z,10.43
2019-03-29T02:10:55.144Z,6.83
2019-03-29T02:13:23.772Z,6.43
2019-03-29T02:15:52.431Z,10.20
2019-03-29T02:18:21.055Z,6.20
2019-03-29T02:20:50.134Z,8.87
2019-03-29T02:23:19.093Z,9.40
2019-03-29T02:25:47.718Z,8.40
2019-03-29T02:28:16.353Z,9.27
2019-03-29T02:30:45.035Z,7.67
2019-03-29T02:33:13.598Z,6.10
2019-03-29T02:35:42.221Z,9.87
2019-03-29T02:38:10.889Z,6.10
2019-03-29T02:40:39.503Z,7.00
2019-03-29T02:43:08.132Z,9.37
2019-03-29T02:45:36.790Z,8.33
2019-03-29T02:48:05.454Z,5.93
2019-03-29T02:50:34.036Z,8.17
2019-03-29T02:53:02.706Z,7.50
2019-03-29T02:55:31.321Z,3.90
2019-03-29T02:57:59.953Z,7.27
2019-03-29T03:00:28.624Z,10.13
2019-03-29T03:02:57.334Z,6.07
2019-03-29T03:05:25.931Z,10.43
2019-03-29T03:07:54.603Z,6.10
2019-03-29T03:10:23.226Z,8.73
2019-03-29T03:12:51.845Z,6.17
2019-03-29T03:15:20.562Z,5.63
2019-03-29T03:17:49.192Z,14.40
2019-03-29T03:20:18.124Z,9.17
2019-03-29T03:22:46.780Z,7.40
2019-03-29T03:25:15.412Z,5.93
2019-03-29T03:27:44.016Z,7.40
2019-03-29T03:30:13.229Z,8.50
2019-03-29T03:32:41.916Z,5.50
2019-03-29T03:35:11.042Z,4.23
2019-03-29T03:37:39.693Z,7.27
2019-03-29T03:40:09.928Z,7.07
2019-03-29T03:42:38.555Z,7.57
2019-03-29T03:45:07.906Z,7.60
2019-03-29T03:47:37.330Z,9.20
2019-03-29T03:50:06.854Z,3.97
2019-03-29T03:52:35.584Z,3.97
2019-03-29T03:55:05.997Z,5.00
2019-03-29T03:57:35.513Z,6.03
2019-03-29T04:00:09.126Z,6.37
2019-03-29T04:02:37.763Z,3.53
2019-03-29T04:05:07.581Z,4.53
2019-03-29T04:07:36.250Z,4.83
2019-03-29T04:10:07.181Z,3.17
2019-03-29T04:12:35.883Z,4.40
2019-03-29T04:15:05.436Z,2.63
2019-03-29T04:17:34.044Z,6.23
2019-03-29T04:20:02.715Z,4.30
2019-03-29T04:22:31.356Z,4.73
2019-03-29T04:24:59.975Z,4.87
2019-03-29T04:27:28.594Z,7.77
2019-03-29T04:29:57.260Z,4.87
2019-03-29T04:32:25.892Z,4.63
2019-03-29T04:34:54.520Z,4.60
2019-03-29T04:37:23.214Z,4.93
2019-03-29T04:40:06.484Z,3.80
2019-03-29T04:42:22.181Z,5.70
2019-03-29T04:44:50.837Z,7.50
2019-03-29T04:47:19.485Z,4.33
2019-03-29T04:49:48.129Z,3.63
2019-03-29T04:52:16.785Z,4.37
2019-03-29T04:54:45.415Z,9.27
2019-03-29T04:57:14.037Z,6.20
2019-03-29T04:59:42.706Z,6.23
2019-03-29T05:02:11.331Z,6.73
2019-03-29T05:04:39.959Z,5.07
2019-03-29T05:07:08.619Z,6.47
2019-03-29T05:09:37.183Z,4.83
2019-03-29T05:12:05.807Z,6.57
2019-03-29T05:14:34.543Z,6.53
2019-03-29T05:17:03.230Z,5.73
2019-03-29T05:19:31.860Z,6.23
2019-03-29T05:22:00.603Z,4.77
2019-03-29T05:24:29.232Z,7.93
2019-03-29T05:26:57.853Z,6.50
2019-03-29T05:29:26.512Z,9.93
2019-03-29T05:31:55.131Z,8.00
2019-03-29T05:34:23.765Z,7.27
2019-03-29T05:36:52.423Z,10.63
2019-03-29T05:39:21.047Z,12.27
2019-03-29T05:41:49.672Z,13.40
2019-03-29T05:44:18.266Z,11.30
2019-03-29T05:46:46.895Z,11.10
2019-03-29T05:49:15.525Z,6.40
2019-03-29T05:51:44.169Z,11.50
2019-03-29T05:54:13.405Z,10.13
2019-03-29T05:56:42.101Z,7.63
2019-03-29T05:59:10.761Z,7.60
2019-03-29T06:01:39.457Z,20.47
2019-03-29T06:04:08.087Z,11.40
2019-03-29T06:06:36.675Z,9.30
2019-03-29T06:09:06.805Z,11.93
2019-03-29T06:11:35.804Z,12.20
2019-03-29T06:14:04.497Z,7.07
2019-03-29T06:16:38.790Z,13.73
2019-03-29T06:19:03.472Z,9.00
2019-03-29T06:21:32.133Z,8.87
2019-03-29T06:24:00.775Z,16.13
2019-03-29T06:26:29.408Z,11.93
2019-03-29T06:28:58.239Z,10.43
2019-03-29T06:31:26.793Z,12.87
2019-03-29T06:33:55.422Z,13.30
2019-03-29T06:36:25.190Z,17.00
2019-03-29T06:38:55.332Z,15.63
2019-03-29T06:41:24.040Z,15.73
2019-03-29T06:43:52.643Z,13.67
2019-03-29T06:46:21.272Z,10.70
2019-03-29T06:48:49.905Z,11.30
2019-03-29T06:51:18.566Z,18.03
2019-03-29T06:53:47.189Z,10.97
2019-03-29T06:56:15.808Z,13.47
2019-03-29T06:58:44.466Z,11.77
2019-03-29T07:01:13.097Z,9.63
2019-03-29T07:03:41.667Z,19.47
2019-03-29T07:06:10.345Z,16.30
2019-03-29T07:08:38.973Z,11.37
2019-03-29T07:11:17.351Z,15.97
2019-03-29T07:13:37.985Z,16.43
2019-03-29T07:16:06.610Z,13.53
2019-03-29T07:18:35.239Z,12.83
2019-03-29T07:21:03.925Z,14.73
2019-03-29T07:23:32.620Z,9.93
2019-03-29T07:26:01.254Z,13.03
2019-03-29T07:28:29.919Z,12.13
2019-03-29T07:30:58.605Z,8.63
2019-03-29T07:33:27.227Z,8.43
2019-03-29T07:35:55.957Z,5.17
2019-03-29T07:38:24.580Z,6.03
2019-03-29T07:40:53.206Z,6.10
2019-03-29T07:43:24.071Z,5.50
2019-03-29T07:45:52.291Z,4.60
2019-03-29T07:48:20.916Z,6.40
2019-03-29T07:50:49.583Z,8.27
2019-03-29T07:53:18.204Z,6.77
2019-03-29T07:55:46.820Z,7.67
2019-03-29T07:58:15.482Z,8.77
2019-03-29T08:00:44.021Z,14.20
2019-03-29T08:03:12.654Z,8.37
2019-03-29T08:05:41.296Z,8.47
2019-03-29T08:08:23.156Z,8.97
2019-03-29T08:10:40.255Z,21.17
2019-03-29T08:13:08.908Z,9.33
2019-03-29T08:15:37.532Z,7.73
2019-03-29T08:18:06.155Z,8.57
2019-03-29T08:20:43.288Z,7.13
2019-03-29T08:23:05.182Z,5.60
2019-03-29T08:25:33.872Z,10.20
2019-03-29T08:28:02.536Z,5.37
2019-03-29T08:30:31.147Z,9.87
2019-03-29T08:32:59.761Z,6.33
2019-03-29T08:35:28.432Z,5.13
2019-03-29T08:37:57.052Z,8.50
2019-03-29T08:40:25.603Z,8.07
2019-03-29T08:42:54.247Z,5.27
2019-03-29T08:45:22.932Z,4.40
2019-03-29T08:47:51.557Z,4.60
2019-03-29T08:50:20.209Z,7.43
2019-03-29T08:52:48.838Z,3.43
2019-03-29T08:55:17.891Z,13.07
2019-03-29T08:57:46.602Z,6.20
2019-03-29T09:00:18.133Z,7.33
2019-03-29T09:02:46.753Z,5.40
2019-03-29T09:05:15.419Z,5.37
2019-03-29T09:07:45.417Z,7.03
2019-03-29T09:10:27.365Z,8.50
2019-03-29T09:12:55.880Z,5.03
2019-03-29T09:15:24.508Z,5.97
2019-03-29T09:17:53.217Z,7.30
2019-03-29T09:20:21.805Z,8.63
2019-03-29T09:22:50.403Z,5.30
2019-03-29T09:25:21.061Z,3.87
2019-03-29T09:27:49.411Z,10.30
2019-03-29T09:30:18.031Z,9.53
2019-03-29T09:32:46.686Z,6.47
2019-03-29T09:35:15.387Z,7.50
2019-03-29T09:37:44.094Z,6.43
2019-03-29T09:40:14.027Z,6.47
2019-03-29T09:42:42.911Z,4.83
2019-03-29T09:45:11.598Z,8.47
2019-03-29T09:47:40.822Z,5.47
2019-03-29T09:50:10.945Z,7.23
2019-03-29T09:52:39.570Z,10.30
2019-03-29T09:55:08.694Z,5.47
2019-03-29T09:57:38.264Z,4.33
2019-03-29T10:00:20.967Z,5.33
2019-03-29T10:02:41.320Z,20.13
2019-03-29T10:05:10.560Z,4.47
2019-03-29T10:07:39.111Z,6.03
2019-03-29T10:10:07.971Z,14.60
2019-03-29T10:12:43.489Z,9.47
2019-03-29T10:15:08.212Z,5.37
2019-03-29T10:17:36.875Z,9.30
2019-03-29T10:20:07.404Z,7.97
2019-03-29T10:22:36.031Z,4.07
2019-03-29T10:25:18.625Z,4.80
2019-03-29T10:27:36.833Z,3.60
2019-03-29T10:30:09.056Z,3.43
2019-03-29T10:32:37.717Z,5.63
2019-03-29T10:35:07.433Z,5.17
2019-03-29T10:37:36.048Z,3.77
2019-03-29T10:40:07.311Z,4.70
2019-03-29T10:42:39.664Z,4.00
2019-03-29T10:45:06.474Z,4.10
2019-03-29T10:47:43.609Z,5.50
2019-03-29T10:50:07.194Z,9.03
2019-03-29T10:52:35.819Z,4.00
2019-03-29T10:55:04.880Z,9.17
2019-03-29T10:57:33.582Z,4.40
2019-03-29T11:00:02.145Z,6.80
2019-03-29T11:02:30.875Z,5.67
2019-03-29T11:04:59.424Z,8.87
2019-03-29T11:07:28.045Z,4.23
2019-03-29T11:09:56.728Z,2.50
2019-03-29T11:12:25.424Z,4.93
2019-03-29T11:14:54.045Z,7.30
2019-03-29T11:17:22.769Z,7.13
2019-03-29T11:19:51.471Z,6.57
2019-03-29T11:22:20.095Z,4.40
2019-03-29T11:24:48.752Z,6.73
2019-03-29T11:27:17.380Z,4.50
2019-03-29T11:29:46.005Z,3.13
2019-03-29T11:32:14.667Z,3.23
2019-03-29T11:34:43.286Z,8.47
2019-03-29T11:37:11.909Z,9.47
2019-03-29T11:39:40.499Z,3.80
2019-03-29T11:42:09.116Z,7.73
2019-03-29T11:44:37.670Z,2.50
2019-03-29T11:47:06.710Z,5.10
2019-03-29T11:49:35.323Z,3.53
2019-03-29T11:52:03.947Z,2.93
2019-03-29T11:54:32.617Z,3.67
2019-03-29T11:57:01.272Z,3.93
2019-03-29T11:59:29.895Z,4.27
2019-03-29T12:01:58.557Z,4.67
2019-03-29T12:04:27.256Z,4.27
2019-03-29T12:06:55.881Z,5.60
2019-03-29T12:09:24.541Z,3.80
2019-03-29T12:11:53.173Z,3.50
2019-03-29T12:14:21.671Z,8.33
2019-03-29T12:16:50.321Z,3.70
2019-03-29T12:19:18.946Z,5.73
2019-03-29T12:21:47.573Z,8.73
2019-03-29T12:24:16.235Z,7.47
2019-03-29T12:26:44.935Z,7.47
2019-03-29T12:29:13.632Z,2.97
2019-03-29T12:31:42.353Z,5.43
2019-03-29T12:34:10.997Z,6.17
2019-03-29T12:36:39.625Z,4.93
2019-03-29T12:39:08.494Z,5.90
2019-03-29T12:41:37.118Z,3.43
2019-03-29T12:44:05.811Z,4.13
2019-03-29T12:46:34.543Z,2.37
2019-03-29T12:49:03.163Z,3.73
2019-03-29T12:51:31.888Z,7.63
2019-03-29T12:54:00.473Z,5.40
2019-03-29T12:56:29.093Z,2.13
2019-03-29T12:58:57.720Z,5.97
2019-03-29T13:01:38.641Z,6.13
2019-03-29T13:03:56.735Z,5.37
2019-03-29T13:06:25.349Z,5.50
2019-03-29T13:08:53.999Z,4.90
2019-03-29T13:11:22.621Z,4.20
2019-03-29T13:13:51.317Z,6.23
2019-03-29T13:16:20.049Z,7.17
2019-03-29T13:18:48.741Z,3.67
2019-03-29T13:21:17.441Z,3.87
2019-03-29T13:23:46.098Z,5.10
2019-03-29T13:26:14.725Z,4.40
2019-03-29T13:28:43.341Z,7.27
2019-03-29T13:31:12.517Z,4.00
2019-03-29T13:33:41.126Z,7.97
2019-03-29T13:36:09.753Z,3.73
2019-03-29T13:38:38.334Z,3.70
2019-03-29T13:41:07.335Z,4.00
2019-03-29T13:43:35.989Z,8.73
2019-03-29T13:46:04.647Z,4.80
2019-03-29T13:48:33.268Z,4.97
2019-03-29T13:51:01.902Z,5.53
2019-03-29T13:53:31.494Z,5.17
2019-03-29T13:56:00.183Z,7.50
2019-03-29T13:58:28.753Z,5.40
2019-03-29T14:00:57.410Z,6.93
2019-03-29T14:03:26.037Z,6.77
2019-03-29T14:05:54.679Z,5.97
2019-03-29T14:08:23.345Z,4.07
2019-03-29T14:10:51.974Z,8.50
2019-03-29T14:13:20.608Z,7.37
2019-03-29T14:15:49.209Z,5.00
2019-03-29T14:18:17.837Z,10.47
2019-03-29T14:20:46.475Z,8.87
2019-03-29T14:23:15.138Z,4.73
2019-03-29T14:25:43.768Z,5.93
2019-03-29T14:28:12.463Z,6.23
2019-03-29T14:30:41.139Z,8.83
2019-03-29T14:33:09.762Z,5.90
2019-03-29T14:35:38.390Z,8.40
2019-03-29T14:38:07.049Z,7.80
2019-03-29T14:40:35.684Z,4.93
2019-03-29T14:43:04.312Z,9.20
2019-03-29T14:45:33.069Z,7.30
2019-03-29T14:48:01.716Z,8.43
2019-03-29T14:50:30.415Z,6.23
2019-03-29T14:52:59.077Z,8.47
2019-03-29T14:55:27.705Z,12.53
2019-03-29T14:57:56.328Z,7.77
2019-03-29T15:00:36.528Z,10.07
2019-03-29T15:03:05.362Z,17.07
2019-03-29T15:05:33.989Z,10.57
2019-03-29T15:08:02.775Z,7.60
2019-03-29T15:10:31.488Z,11.17
2019-03-29T15:13:00.117Z,6.77
2019-03-29T15:15:28.785Z,13.53
2019-03-29T15:17:57.419Z,10.37
2019-03-29T15:20:25.971Z,7.50
2019-03-29T15:22:54.646Z,10.07
2019-03-29T15:25:23.268Z,7.50
2019-03-29T15:27:51.897Z,6.97
2019-03-29T15:30:20.555Z,8.63
2019-03-29T15:32:49.190Z,18.93
2019-03-29T15:35:20.807Z,16.10
2019-03-29T15:37:48.264Z,8.10
2019-03-29T15:40:16.887Z,8.10
2019-03-29T15:42:45.512Z,5.37
2019-03-29T15:45:20.755Z,6.97
2019-03-29T15:47:45.121Z,6.03
2019-03-29T15:50:13.744Z,4.87
2019-03-29T15:52:42.467Z,11.97
2019-03-29T15:55:11.568Z,5.67
2019-03-29T15:57:40.187Z,9.70
2019-03-29T16:00:12.566Z,9.27
2019-03-29T16:02:41.119Z,7.40
2019-03-29T16:05:11.195Z,8.73
2019-03-29T16:07:39.862Z,5.50
2019-03-29T16:10:08.484Z,7.87
2019-03-29T16:12:37.094Z,13.73
2019-03-29T16:15:07.577Z,12.33
2019-03-29T16:17:36.201Z,9.87
2019-03-29T16:20:05.937Z,10.50
2019-03-29T16:22:35.098Z,10.33
2019-03-29T16:25:05.765Z,6.40
2019-03-29T16:27:34.385Z,5.87
2019-03-29T16:30:03.118Z,8.73
2019-03-29T16:32:31.673Z,8.07
2019-03-29T16:35:00.385Z,10.03
2019-03-29T16:37:29.186Z,5.63
2019-03-29T16:39:57.810Z,10.83
2019-03-29T16:42:26.441Z,4.73
2019-03-29T16:44:55.172Z,6.80
2019-03-29T16:47:23.801Z,9.03
2019-03-29T16:49:52.429Z,6.67
2019-03-29T16:52:21.093Z,15.17
2019-03-29T16:54:49.724Z,4.63
2019-03-29T16:57:18.266Z,8.80
2019-03-29T16:59:46.926Z,8.87
2019-03-29T17:02:15.760Z,10.90
2019-03-29T17:04:44.390Z,10.30
2019-03-29T17:07:13.074Z,7.43
2019-03-29T17:09:41.694Z,7.67
2019-03-29T17:12:10.313Z,6.57
2019-03-29T17:14:38.992Z,7.07
2019-03-29T17:17:07.600Z,15.37
2019-03-29T17:19:36.231Z,9.43
2019-03-29T17:22:04.882Z,17.20
2019-03-29T17:24:33.521Z,8.83
2019-03-29T17:27:02.141Z,7.03
2019-03-29T17:29:30.884Z,15.23
2019-03-29T17:31:59.578Z,12.83
2019-03-29T17:34:28.209Z,11.00
2019-03-29T17:36:56.945Z,7.43
2019-03-29T17:39:25.576Z,8.30
2019-03-29T17:41:54.213Z,5.70
2019-03-29T17:44:22.866Z,5.27
2019-03-29T17:46:51.499Z,6.87
2019-03-29T17:49:20.133Z,8.73
2019-03-29T17:51:48.860Z,8.07
2019-03-29T17:54:17.496Z,7.40
2019-03-29T17:56:46.114Z,7.37
2019-03-29T17:59:14.857Z,7.43
2019-03-29T18:01:43.486Z,13.40
2019-03-29T18:04:12.119Z,11.67
2019-03-29T18:06:40.776Z,8.17
2019-03-29T18:09:09.401Z,11.27
2019-03-29T18:11:38.018Z,6.60
2019-03-29T18:14:06.677Z,6.93
2019-03-29T18:16:35.308Z,10.07
2019-03-29T18:19:03.935Z,9.27
2019-03-29T18:21:32.591Z,6.97
2019-03-29T18:24:01.215Z,9.83
2019-03-29T18:26:29.836Z,12.33
2019-03-29T18:28:58.499Z,12.23
2019-03-29T18:31:27.140Z,13.60
2019-03-29T18:33:55.760Z,10.83
2019-03-29T18:36:24.422Z,14.83
2019-03-29T18:38:53.348Z,10.13
2019-03-29T18:41:21.980Z,14.17
2019-03-29T18:43:50.648Z,10.70
2019-03-29T18:46:19.342Z,13.90
2019-03-29T18:48:47.967Z,11.67
2019-03-29T18:51:16.625Z,10.63
2019-03-29T18:53:45.243Z,9.47
2019-03-29T18:56:13.875Z,11.90
2019-03-29T18:58:42.624Z,10.50
2019-03-29T19:01:11.253Z,12.90
2019-03-29T19:03:39.869Z,18.27
2019-03-29T19:06:08.534Z,10.63
2019-03-29T19:08:37.180Z,21.50
2019-03-29T19:11:05.818Z,14.90
2019-03-29T19:13:34.492Z,20.10
2019-03-29T19:16:03.124Z,21.40
2019-03-29T19:18:31.817Z,24.30
2019-03-29T19:21:00.484Z,19.43
2019-03-29T19:23:29.116Z,21.53
2019-03-29T19:25:57.758Z,18.77
2019-03-29T19:28:26.425Z,14.53
2019-03-29T19:30:55.051Z,15.33
2019-03-29T19:33:23.690Z,15.90
2019-03-29T19:35:52.361Z,20.77
2019-03-29T19:38:21.058Z,26.47
2019-03-29T19:40:49.700Z,27.97
2019-03-29T19:43:18.442Z,32.20
2019-03-29T19:45:47.374Z,28.50
2019-03-29T19:48:15.955Z,21.30
2019-03-29T19:50:44.685Z,28.23
2019-03-29T19:53:13.435Z,23.80
2019-03-29T19:55:42.127Z,20.67
2019-03-29T19:58:10.874Z,25.20
2019-03-29T20:00:41.308Z,22.60
2019-03-29T20:03:10.080Z,19.63
2019-03-29T20:05:38.808Z,18.00
2019-03-29T20:08:07.610Z,15.57
2019-03-29T20:10:36.407Z,15.90
2019-03-29T20:13:05.444Z,17.80
2019-03-29T20:15:34.249Z,21.37
2019-03-29T20:18:02.879Z,15.47
2019-03-29T20:20:31.542Z,13.30
2019-03-29T20:23:01.465Z,12.33
2019-03-29T20:25:30.165Z,15.63
2019-03-29T20:27:58.949Z,28.73
2019-03-29T20:30:28.068Z,19.00
2019-03-29T20:32:56.969Z,19.93
2019-03-29T20:35:25.635Z,25.37
2019-03-29T20:37:54.261Z,18.53
2019-03-29T20:40:22.963Z,20.10
2019-03-29T20:42:51.694Z,17.17
2019-03-29T20:45:20.337Z,42.60
2019-03-29T20:47:51.884Z,49.70
2019-03-29T20:50:19.450Z,59.47
2019-03-29T20:52:48.158Z,133.33
2019-03-29T20:55:16.858Z,194.50
2019-03-29T20:57:45.547Z,159.97
2019-03-29T21:00:16.119Z,529.70
2019-03-29T21:02:44.882Z,498.60
2019-03-29T21:05:13.542Z,365.93
2019-03-29T21:07:42.242Z,103.83
2019-03-29T21:10:11.177Z,92.17
2019-03-29T21:12:39.932Z,107.53
2019-03-29T21:15:09.079Z,114.27
2019-03-29T21:17:37.708Z,129.63
2019-03-29T21:20:08.833Z,228.80
2019-03-29T21:22:37.636Z,126.53
2019-03-29T21:25:09.378Z,65.73
2019-03-29T21:27:38.240Z,45.53
2019-03-29T21:30:09.555Z,36.97
2019-03-29T21:32:38.254Z,27.87
2019-03-29T21:35:08.112Z,30.10
2019-03-29T21:37:37.143Z,19.00
2019-03-29T21:40:07.988Z,21.83
2019-03-29T21:42:37.583Z,21.23
2019-03-29T21:45:08.213Z,26.43
2019-03-29T21:47:36.812Z,23.00
2019-03-29T21:50:09.929Z,20.40
2019-03-29T21:52:38.622Z,18.37
2019-03-29T21:55:07.550Z,15.47
2019-03-29T21:57:36.312Z,18.20
2019-03-29T22:00:12.439Z,14.37
2019-03-29T22:02:41.061Z,20.33
2019-03-29T22:05:10.575Z,19.87
2019-03-29T22:07:39.442Z,18.90
2019-03-29T22:10:08.766Z,15.40
2019-03-29T22:12:37.425Z,19.50
2019-03-29T22:15:07.356Z,26.30
2019-03-29T22:17:35.998Z,18.03
2019-03-29T22:20:09.154Z,23.13
2019-03-29T22:22:37.997Z,27.87
2019-03-29T22:25:10.678Z,23.33
2019-03-29T22:27:39.358Z,19.43
2019-03-29T22:30:11.332Z,26.37
2019-03-29T22:32:39.968Z,24.23
2019-03-29T22:35:08.728Z,20.70
2019-03-29T22:37:37.353Z,16.43
2019-03-29T22:40:07.992Z,23.83
2019-03-29T22:42:36.648Z,18.40
2019-03-29T22:45:07.425Z,20.63
2019-03-29T22:47:36.054Z,20.33
2019-03-29T22:50:06.431Z,11.70
2019-03-29T22:52:35.051Z,16.33
2019-03-29T22:55:04.890Z,19.23
2019-03-29T22:57:33.543Z,18.63
2019-03-29T23:00:02.173Z,14.40
2019-03-29T23:02:30.789Z,17.40
2019-03-29T23:04:59.450Z,12.43
2019-03-29T23:07:28.074Z,16.67
2019-03-29T23:09:56.705Z,19.60
2019-03-29T23:12:25.362Z,18.30
2019-03-29T23:14:53.988Z,18.70
2019-03-29T23:17:22.625Z,27.17
2019-03-29T23:19:51.216Z,21.27
2019-03-29T23:22:19.835Z,18.17
2019-03-29T23:24:48.451Z,12.80
2019-03-29T23:27:17.117Z,18.30
2019-03-29T23:29:45.746Z,23.57
2019-03-29T23:32:14.301Z,20.37
2019-03-29T23:34:42.954Z,20.53
2019-03-29T23:37:11.589Z,16.90
2019-03-29T23:39:40.152Z,12.77
2019-03-29T23:42:08.842Z,12.97
2019-03-29T23:44:37.452Z,17.67
2019-03-29T23:47:06.082Z,29.17
2019-03-29T23:49:34.728Z,30.63
2019-03-29T23:52:03.421Z,33.37
2019-03-29T23:54:32.039Z,28.37
2019-03-29T23:57:00.714Z,30.13
2019-03-29T23:59:29.271Z,21.20
